sensor_id;sensor_type;location;lat;lon;timestamp;pressure;altitude;pressure_sealevel;temperature;humidity
79544;BME280;68994;47.176;7.534;2023-08-24T00:00:42;96164.13;;;22.20;68.20
79544;BME280;68994;47.176;7.534;2023-08-24T00:03:10;96153.44;;;22.15;67.88
79544;BME280;68994;47.176;7.534;2023-08-24T00:05:37;96154.09;;;22.12;69.47
79544;BME280;68994;47.176;7.534;2023-08-24T00:08:06;96148.31;;;22.13;68.33
79544;BME280;68994;47.176;7.534;2023-08-24T00:10:33;96151.88;;;22.14;68.40
79544;BME280;68994;47.176;7.534;2023-08-24T00:13:00;96145.47;;;22.10;69.35
79544;BME280;68994;47.176;7.534;2023-08-24T00:15:27;96148.38;;;22.04;68.98
79544;BME280;68994;47.176;7.534;2023-08-24T00:17:54;96143.94;;;22.00;68.89
79544;BME280;68994;47.176;7.534;2023-08-24T00:20:22;96140.41;;;21.99;68.84
79544;BME280;68994;47.176;7.534;2023-08-24T00:22:48;96144.75;;;22.00;69.03
79544;BME280;68994;47.176;7.534;2023-08-24T00:25:15;96143.00;;;21.96;69.76
79544;BME280;68994;47.176;7.534;2023-08-24T00:27:43;96142.38;;;21.90;69.46
79544;BME280;68994;47.176;7.534;2023-08-24T00:30:10;96132.66;;;21.89;69.90
79544;BME280;68994;47.176;7.534;2023-08-24T00:32:37;96131.22;;;21.83;70.38
79544;BME280;68994;47.176;7.534;2023-08-24T00:35:05;96124.06;;;21.78;70.50
79544;BME280;68994;47.176;7.534;2023-08-24T00:37:34;96122.16;;;21.70;71.01
79544;BME280;68994;47.176;7.534;2023-08-24T00:40:02;96127.31;;;21.63;70.92
79544;BME280;68994;47.176;7.534;2023-08-24T00:42:30;96114.72;;;21.58;71.08
79544;BME280;68994;47.176;7.534;2023-08-24T00:44:57;96128.47;;;21.53;70.92
79544;BME280;68994;47.176;7.534;2023-08-24T00:47:24;96123.69;;;21.50;72.03
79544;BME280;68994;47.176;7.534;2023-08-24T00:49:51;96122.72;;;21.46;71.62
79544;BME280;68994;47.176;7.534;2023-08-24T00:52:18;96125.75;;;21.44;72.59
79544;BME280;68994;47.176;7.534;2023-08-24T00:54:46;96119.72;;;21.39;72.16
79544;BME280;68994;47.176;7.534;2023-08-24T00:57:13;96120.22;;;21.32;72.14
79544;BME280;68994;47.176;7.534;2023-08-24T00:59:40;96124.34;;;21.29;72.03
79544;BME280;68994;47.176;7.534;2023-08-24T01:02:07;96111.25;;;21.31;71.81
79544;BME280;68994;47.176;7.534;2023-08-24T01:04:33;96108.91;;;21.30;71.51
79544;BME280;68994;47.176;7.534;2023-08-24T01:07:00;96104.25;;;21.30;72.20
79544;BME280;68994;47.176;7.534;2023-08-24T01:09:28;96106.50;;;21.28;72.39
79544;BME280;68994;47.176;7.534;2023-08-24T01:12:00;96107.13;;;21.25;73.02
79544;BME280;68994;47.176;7.534;2023-08-24T01:14:37;96109.22;;;21.28;72.78
79544;BME280;68994;47.176;7.534;2023-08-24T01:17:09;96106.50;;;21.28;72.74
79544;BME280;68994;47.176;7.534;2023-08-24T01:19:41;96103.28;;;21.26;72.87
79544;BME280;68994;47.176;7.534;2023-08-24T01:22:20;96104.25;;;21.30;72.30
79544;BME280;68994;47.176;7.534;2023-08-24T01:24:57;96100.06;;;21.33;72.28
79544;BME280;68994;47.176;7.534;2023-08-24T01:27:28;96093.72;;;21.29;72.50
79544;BME280;68994;47.176;7.534;2023-08-24T01:29:55;96104.59;;;21.20;73.33
79544;BME280;68994;47.176;7.534;2023-08-24T01:32:22;96102.06;;;21.15;73.31
79544;BME280;68994;47.176;7.534;2023-08-24T01:34:49;96102.88;;;21.07;73.61
79544;BME280;68994;47.176;7.534;2023-08-24T01:37:16;96101.44;;;21.01;73.17
79544;BME280;68994;47.176;7.534;2023-08-24T01:39:46;96098.13;;;20.95;73.81
79544;BME280;68994;47.176;7.534;2023-08-24T01:42:18;96096.66;;;20.98;74.01
79544;BME280;68994;47.176;7.534;2023-08-24T01:44:50;96087.59;;;20.93;73.70
79544;BME280;68994;47.176;7.534;2023-08-24T01:47:19;96084.53;;;20.86;74.46
79544;BME280;68994;47.176;7.534;2023-08-24T01:49:48;96084.88;;;20.76;74.75
79544;BME280;68994;47.176;7.534;2023-08-24T01:52:15;96088.91;;;20.70;74.76
79544;BME280;68994;47.176;7.534;2023-08-24T01:54:42;96088.06;;;20.69;74.90
79544;BME280;68994;47.176;7.534;2023-08-24T01:57:10;96092.38;;;20.70;74.77
79544;BME280;68994;47.176;7.534;2023-08-24T02:02:04;96081.69;;;20.56;74.96
79544;BME280;68994;47.176;7.534;2023-08-24T02:04:31;96081.19;;;20.54;75.35
79544;BME280;68994;47.176;7.534;2023-08-24T02:06:58;96072.91;;;20.51;75.02
79544;BME280;68994;47.176;7.534;2023-08-24T02:09:25;96070.03;;;20.47;75.58
79544;BME280;68994;47.176;7.534;2023-08-24T02:11:51;96070.03;;;20.47;75.30
79544;BME280;68994;47.176;7.534;2023-08-24T02:14:18;96067.34;;;20.47;75.42
79544;BME280;68994;47.176;7.534;2023-08-24T02:16:45;96070.84;;;20.48;75.16
79544;BME280;68994;47.176;7.534;2023-08-24T02:19:13;96060.31;;;20.37;75.42
79544;BME280;68994;47.176;7.534;2023-08-24T02:21:40;96064.31;;;20.40;75.45
79544;BME280;68994;47.176;7.534;2023-08-24T02:24:06;96067.66;;;20.37;75.45
79544;BME280;68994;47.176;7.534;2023-08-24T02:26:33;96062.88;;;20.34;74.68
79544;BME280;68994;47.176;7.534;2023-08-24T02:29:00;96060.94;;;20.26;75.21
79544;BME280;68994;47.176;7.534;2023-08-24T02:31:26;96062.09;;;20.25;75.27
79544;BME280;68994;47.176;7.534;2023-08-24T02:33:53;96049.47;;;20.11;75.20
79544;BME280;68994;47.176;7.534;2023-08-24T02:36:22;96056.97;;;20.14;75.58
79544;BME280;68994;47.176;7.534;2023-08-24T02:38:48;96059.19;;;20.12;76.01
79544;BME280;68994;47.176;7.534;2023-08-24T02:41:15;96057.09;;;20.09;75.93
79544;BME280;68994;47.176;7.534;2023-08-24T02:43:42;96059.97;;;20.04;76.04
79544;BME280;68994;47.176;7.534;2023-08-24T02:46:09;96053.75;;;20.04;76.32
79544;BME280;68994;47.176;7.534;2023-08-24T02:48:36;96056.31;;;20.00;76.40
79544;BME280;68994;47.176;7.534;2023-08-24T02:51:04;96051.53;;;19.97;76.47
79544;BME280;68994;47.176;7.534;2023-08-24T02:53:32;96049.28;;;19.90;76.53
79544;BME280;68994;47.176;7.534;2023-08-24T02:55:59;96052.63;;;19.96;76.32
79544;BME280;68994;47.176;7.534;2023-08-24T02:58:26;96052.31;;;19.89;76.62
79544;BME280;68994;47.176;7.534;2023-08-24T03:00:53;96046.88;;;19.89;76.49
79544;BME280;68994;47.176;7.534;2023-08-24T03:03:19;96050.56;;;19.93;76.53
79544;BME280;68994;47.176;7.534;2023-08-24T03:05:54;96050.56;;;19.93;76.62
79544;BME280;68994;47.176;7.534;2023-08-24T03:08:21;96049.28;;;19.90;76.40
79544;BME280;68994;47.176;7.534;2023-08-24T03:10:49;96045.13;;;19.84;77.04
79544;BME280;68994;47.176;7.534;2023-08-24T03:13:16;96042.41;;;19.75;76.95
79544;BME280;68994;47.176;7.534;2023-08-24T03:15:43;96051.63;;;19.74;77.60
79544;BME280;68994;47.176;7.534;2023-08-24T03:18:11;96048.41;;;19.72;77.46
79544;BME280;68994;47.176;7.534;2023-08-24T03:20:38;96031.38;;;19.63;77.56
79544;BME280;68994;47.176;7.534;2023-08-24T03:23:05;96034.25;;;19.67;77.40
79544;BME280;68994;47.176;7.534;2023-08-24T03:25:35;96022.28;;;19.59;77.02
79544;BME280;68994;47.176;7.534;2023-08-24T03:28:04;96027.22;;;19.65;77.26
79544;BME280;68994;47.176;7.534;2023-08-24T03:30:31;96029.75;;;19.62;77.06
79544;BME280;68994;47.176;7.534;2023-08-24T03:32:58;96034.88;;;19.63;77.12
79544;BME280;68994;47.176;7.534;2023-08-24T03:35:26;96035.66;;;19.64;76.84
79544;BME280;68994;47.176;7.534;2023-08-24T03:37:53;96034.25;;;19.67;76.97
79544;BME280;68994;47.176;7.534;2023-08-24T03:40:19;96033.13;;;19.68;76.91
79544;BME280;68994;47.176;7.534;2023-08-24T03:42:46;96039.81;;;19.70;76.73
79544;BME280;68994;47.176;7.534;2023-08-24T03:45:14;96034.75;;;19.77;76.36
79544;BME280;68994;47.176;7.534;2023-08-24T03:47:41;96033.34;;;19.80;76.33
79544;BME280;68994;47.176;7.534;2023-08-24T03:50:08;96034.13;;;19.80;76.75
79544;BME280;68994;47.176;7.534;2023-08-24T03:52:35;96026.75;;;19.72;76.18
79544;BME280;68994;47.176;7.534;2023-08-24T03:55:05;96028.19;;;19.70;76.67
79544;BME280;68994;47.176;7.534;2023-08-24T03:57:32;96024.81;;;19.64;76.81
79544;BME280;68994;47.176;7.534;2023-08-24T03:59:59;96033.28;;;19.62;76.59
79544;BME280;68994;47.176;7.534;2023-08-24T04:02:27;96028.50;;;19.59;77.27
79544;BME280;68994;47.176;7.534;2023-08-24T04:04:54;96023.72;;;19.56;77.26
79544;BME280;68994;47.176;7.534;2023-08-24T04:07:20;96038.66;;;19.54;77.20
79544;BME280;68994;47.176;7.534;2023-08-24T04:09:47;96039.41;;;19.45;76.96
79544;BME280;68994;47.176;7.534;2023-08-24T04:12:14;96045.28;;;19.39;77.55
79544;BME280;68994;47.176;7.534;2023-08-24T04:14:40;96046.38;;;19.29;77.73
79544;BME280;68994;47.176;7.534;2023-08-24T04:17:07;96042.38;;;19.26;78.40
79544;BME280;68994;47.176;7.534;2023-08-24T04:19:37;96045.53;;;19.20;78.06
79544;BME280;68994;47.176;7.534;2023-08-24T04:22:04;96044.88;;;19.14;78.05
79544;BME280;68994;47.176;7.534;2023-08-24T04:24:30;96043.59;;;19.12;78.56
79544;BME280;68994;47.176;7.534;2023-08-24T04:26:57;96046.59;;;19.10;78.67
79544;BME280;68994;47.176;7.534;2023-08-24T04:29:23;96051.38;;;19.04;78.96
79544;BME280;68994;47.176;7.534;2023-08-24T04:31:50;96049.75;;;19.03;79.07
79544;BME280;68994;47.176;7.534;2023-08-24T04:34:17;96062.19;;;19.04;78.89
79544;BME280;68994;47.176;7.534;2023-08-24T04:36:44;96058.38;;;19.05;79.09
79544;BME280;68994;47.176;7.534;2023-08-24T04:39:11;96064.56;;;19.06;79.35
79544;BME280;68994;47.176;7.534;2023-08-24T04:41:38;96062.66;;;19.06;78.53
79544;BME280;68994;47.176;7.534;2023-08-24T04:44:05;96059.16;;;19.06;78.83
79544;BME280;68994;47.176;7.534;2023-08-24T04:46:33;96067.59;;;19.04;79.67
79544;BME280;68994;47.176;7.534;2023-08-24T04:49:00;96059.03;;;19.11;79.40
79544;BME280;68994;47.176;7.534;2023-08-24T04:51:26;96061.91;;;19.15;78.97
79544;BME280;68994;47.176;7.534;2023-08-24T04:53:55;96057.59;;;19.14;79.28
79544;BME280;68994;47.176;7.534;2023-08-24T04:56:22;96063.53;;;19.16;79.38
79544;BME280;68994;47.176;7.534;2023-08-24T04:58:52;96062.38;;;19.17;79.36
79544;BME280;68994;47.176;7.534;2023-08-24T05:01:20;96064.13;;;19.13;80.18
79544;BME280;68994;47.176;7.534;2023-08-24T05:03:46;96069.53;;;19.13;80.23
79544;BME280;68994;47.176;7.534;2023-08-24T05:06:13;96072.59;;;19.20;80.17
79544;BME280;68994;47.176;7.534;2023-08-24T05:08:40;96073.38;;;19.20;79.99
79544;BME280;68994;47.176;7.534;2023-08-24T05:11:11;96058.09;;;19.16;80.29
79544;BME280;68994;47.176;7.534;2023-08-24T05:13:39;96070.06;;;19.23;80.22
79544;BME280;68994;47.176;7.534;2023-08-24T05:16:05;96064.34;;;19.25;80.38
79544;BME280;68994;47.176;7.534;2023-08-24T05:18:33;96068.03;;;19.29;80.62
79544;BME280;68994;47.176;7.534;2023-08-24T05:21:00;96079.69;;;19.38;80.34
79544;BME280;68994;47.176;7.534;2023-08-24T05:23:27;96074.75;;;19.40;80.40
79544;BME280;68994;47.176;7.534;2023-08-24T05:25:53;96074.13;;;19.43;80.67
79544;BME280;68994;47.176;7.534;2023-08-24T05:28:21;96078.59;;;19.48;80.80
79544;BME280;68994;47.176;7.534;2023-08-24T05:30:48;96082.09;;;19.49;80.85
79544;BME280;68994;47.176;7.534;2023-08-24T05:33:14;96086.59;;;19.53;81.08
79544;BME280;68994;47.176;7.534;2023-08-24T05:35:41;96085.66;;;19.58;81.03
79544;BME280;68994;47.176;7.534;2023-08-24T05:38:08;96090.44;;;19.61;80.80
79544;BME280;68994;47.176;7.534;2023-08-24T05:40:34;96093.84;;;19.75;78.13
79544;BME280;68994;47.176;7.534;2023-08-24T05:43:02;96092.44;;;19.87;76.96
79544;BME280;68994;47.176;7.534;2023-08-24T05:45:31;96097.56;;;19.97;76.45
79544;BME280;68994;47.176;7.534;2023-08-24T05:47:57;96100.59;;;20.04;75.32
79544;BME280;68994;47.176;7.534;2023-08-24T05:50:24;96099.50;;;20.14;75.09
79544;BME280;68994;47.176;7.534;2023-08-24T05:52:51;96101.91;;;20.15;75.24
79544;BME280;68994;47.176;7.534;2023-08-24T05:55:18;96095.84;;;20.18;75.00
79544;BME280;68994;47.176;7.534;2023-08-24T05:57:44;96102.22;;;20.23;74.76
79544;BME280;68994;47.176;7.534;2023-08-24T06:00:12;96094.91;;;20.23;74.91
79544;BME280;68994;47.176;7.534;2023-08-24T06:02:40;96094.09;;;20.23;74.63
79544;BME280;68994;47.176;7.534;2023-08-24T06:05:07;96095.69;;;20.24;74.75
79544;BME280;68994;47.176;7.534;2023-08-24T06:07:34;96093.16;;;20.27;74.75
79544;BME280;68994;47.176;7.534;2023-08-24T06:10:01;96093.63;;;20.29;74.53
79544;BME280;68994;47.176;7.534;2023-08-24T06:12:28;96099.88;;;20.38;74.37
79544;BME280;68994;47.176;7.534;2023-08-24T06:14:55;96095.06;;;20.44;74.43
79544;BME280;68994;47.176;7.534;2023-08-24T06:17:21;96093.16;;;20.53;74.53
79544;BME280;68994;47.176;7.534;2023-08-24T06:19:49;96090.16;;;20.64;75.12
79544;BME280;68994;47.176;7.534;2023-08-24T06:22:16;96089.66;;;20.79;74.11
79544;BME280;68994;47.176;7.534;2023-08-24T06:24:42;96091.09;;;20.94;73.64
79544;BME280;68994;47.176;7.534;2023-08-24T06:27:09;96086.28;;;21.08;74.20
79544;BME280;68994;47.176;7.534;2023-08-24T06:29:36;96089.91;;;21.21;73.94
79544;BME280;68994;47.176;7.534;2023-08-24T06:32:02;96101.53;;;21.30;73.22
79544;BME280;68994;47.176;7.534;2023-08-24T06:34:29;96095.78;;;21.32;73.12
79544;BME280;68994;47.176;7.534;2023-08-24T06:37:01;96096.56;;;21.33;71.66
79544;BME280;68994;47.176;7.534;2023-08-24T06:39:28;96091.50;;;21.22;71.91
79544;BME280;68994;47.176;7.534;2023-08-24T06:41:55;96100.75;;;21.21;72.75
79544;BME280;68994;47.176;7.534;2023-08-24T06:44:21;96095.97;;;21.18;73.46
79544;BME280;68994;47.176;7.534;2023-08-24T06:46:48;96098.03;;;21.21;72.74
79544;BME280;68994;47.176;7.534;2023-08-24T06:49:14;96093.91;;;21.24;71.80
79544;BME280;68994;47.176;7.534;2023-08-24T06:51:41;96093.44;;;21.22;73.06
79544;BME280;68994;47.176;7.534;2023-08-24T06:54:09;96095.81;;;21.23;73.59
79544;BME280;68994;47.176;7.534;2023-08-24T06:56:35;96092.75;;;21.34;72.24
79544;BME280;68994;47.176;7.534;2023-08-24T06:59:02;96092.09;;;21.37;72.28
79544;BME280;68994;47.176;7.534;2023-08-24T07:01:28;96085.53;;;21.38;72.31
79544;BME280;68994;47.176;7.534;2023-08-24T07:03:57;96086.00;;;21.40;73.64
79544;BME280;68994;47.176;7.534;2023-08-24T07:06:23;96084.25;;;21.44;73.13
79544;BME280;68994;47.176;7.534;2023-08-24T07:08:50;96084.69;;;21.55;72.99
79544;BME280;68994;47.176;7.534;2023-08-24T07:11:18;96088.31;;;21.67;72.90
79544;BME280;68994;47.176;7.534;2023-08-24T07:13:46;96082.06;;;21.76;71.83
79544;BME280;68994;47.176;7.534;2023-08-24T07:16:13;96080.25;;;21.80;72.01
79544;BME280;68994;47.176;7.534;2023-08-24T07:18:40;96078.31;;;21.89;71.57
79544;BME280;68994;47.176;7.534;2023-08-24T07:21:07;96086.06;;;21.99;71.26
79544;BME280;68994;47.176;7.534;2023-08-24T07:23:33;96079.47;;;22.09;71.72
79544;BME280;68994;47.176;7.534;2023-08-24T07:26:00;96081.53;;;22.12;70.76
79544;BME280;68994;47.176;7.534;2023-08-24T07:28:28;96078.28;;;22.19;70.55
79544;BME280;68994;47.176;7.534;2023-08-24T07:30:55;96076.63;;;22.27;70.24
79544;BME280;68994;47.176;7.534;2023-08-24T07:33:21;96079.78;;;22.37;70.82
79544;BME280;68994;47.176;7.534;2023-08-24T07:35:48;96075.50;;;22.49;69.66
79544;BME280;68994;47.176;7.534;2023-08-24T07:38:15;96069.00;;;22.62;68.58
79544;BME280;68994;47.176;7.534;2023-08-24T07:40:42;96065.69;;;22.77;67.72
79544;BME280;68994;47.176;7.534;2023-08-24T07:43:08;96068.44;;;22.90;67.13
79544;BME280;68994;47.176;7.534;2023-08-24T07:45:36;96070.84;;;23.04;67.37
79544;BME280;68994;47.176;7.534;2023-08-24T07:48:03;96068.22;;;23.16;67.76
79544;BME280;68994;47.176;7.534;2023-08-24T07:50:30;96068.22;;;23.28;66.69
79544;BME280;68994;47.176;7.534;2023-08-24T07:52:57;96064.72;;;23.40;66.58
79544;BME280;68994;47.176;7.534;2023-08-24T07:55:24;96064.72;;;23.52;66.06
79544;BME280;68994;47.176;7.534;2023-08-24T07:57:51;96068.47;;;23.73;65.92
79544;BME280;68994;47.176;7.534;2023-08-24T08:00:17;96063.16;;;23.88;66.36
79544;BME280;68994;47.176;7.534;2023-08-24T08:02:45;96065.19;;;24.04;64.56
79544;BME280;68994;47.176;7.534;2023-08-24T08:05:12;96053.22;;;24.21;65.37
79544;BME280;68994;47.176;7.534;2023-08-24T08:07:39;96053.75;;;24.39;65.72
79544;BME280;68994;47.176;7.534;2023-08-24T08:10:06;96059.75;;;24.57;64.89
79544;BME280;68994;47.176;7.534;2023-08-24T08:12:33;96050.81;;;24.72;63.33
79544;BME280;68994;47.176;7.534;2023-08-24T08:15:00;96053.50;;;24.85;63.18
79544;BME280;68994;47.176;7.534;2023-08-24T08:17:26;96045.00;;;25.02;63.35
79544;BME280;68994;47.176;7.534;2023-08-24T08:19:57;96042.28;;;25.18;62.44
79544;BME280;68994;47.176;7.534;2023-08-24T08:22:23;96040.88;;;25.24;60.52
79544;BME280;68994;47.176;7.534;2023-08-24T08:24:50;96037.81;;;25.42;60.41
79544;BME280;68994;47.176;7.534;2023-08-24T08:27:19;96040.28;;;25.63;59.60
79544;BME280;68994;47.176;7.534;2023-08-24T08:29:46;96040.06;;;25.87;57.78
79544;BME280;68994;47.176;7.534;2023-08-24T08:32:12;96034.03;;;26.14;59.29
79544;BME280;68994;47.176;7.534;2023-08-24T08:34:39;96036.66;;;26.45;57.42
79544;BME280;68994;47.176;7.534;2023-08-24T08:37:07;96041.75;;;26.86;56.20
79544;BME280;68994;47.176;7.534;2023-08-24T08:39:33;96035.59;;;27.32;53.72
79544;BME280;68994;47.176;7.534;2023-08-24T08:42:01;96038.56;;;27.73;52.22
79544;BME280;68994;47.176;7.534;2023-08-24T08:44:30;96025.84;;;28.11;50.45
79544;BME280;68994;47.176;7.534;2023-08-24T08:46:57;96023.88;;;28.42;48.96
79544;BME280;68994;47.176;7.534;2023-08-24T08:49:24;96039.59;;;28.75;49.03
79544;BME280;68994;47.176;7.534;2023-08-24T08:51:51;96030.28;;;28.83;48.23
79544;BME280;68994;47.176;7.534;2023-08-24T08:54:20;96033.59;;;29.00;49.14
79544;BME280;68994;47.176;7.534;2023-08-24T08:56:47;96024.38;;;29.19;49.43
79544;BME280;68994;47.176;7.534;2023-08-24T08:59:14;96039.91;;;29.41;47.44
79544;BME280;68994;47.176;7.534;2023-08-24T09:01:42;96038.47;;;29.58;48.28
79544;BME280;68994;47.176;7.534;2023-08-24T09:04:11;96025.19;;;29.71;47.10
79544;BME280;68994;47.176;7.534;2023-08-24T09:06:37;96025.28;;;29.78;47.00
79544;BME280;68994;47.176;7.534;2023-08-24T09:09:04;96029.72;;;29.94;47.15
79544;BME280;68994;47.176;7.534;2023-08-24T09:11:32;96024.31;;;30.08;46.74
79544;BME280;68994;47.176;7.534;2023-08-24T09:13:59;96016.03;;;30.08;46.07
79544;BME280;68994;47.176;7.534;2023-08-24T09:16:29;96018.34;;;30.03;46.12
79544;BME280;68994;47.176;7.534;2023-08-24T09:18:56;96021.47;;;29.97;45.09
79544;BME280;68994;47.176;7.534;2023-08-24T09:21:23;96014.47;;;30.07;47.30
79544;BME280;68994;47.176;7.534;2023-08-24T09:23:52;96014.66;;;30.43;47.62
79544;BME280;68994;47.176;7.534;2023-08-24T09:26:27;96007.72;;;30.89;46.09
79544;BME280;68994;47.176;7.534;2023-08-24T09:28:55;96011.38;;;31.72;44.67
79544;BME280;68994;47.176;7.534;2023-08-24T09:31:22;95998.00;;;32.88;40.95
79544;BME280;68994;47.176;7.534;2023-08-24T09:33:49;95995.91;;;34.08;39.92
79544;BME280;68994;47.176;7.534;2023-08-24T09:36:16;95988.59;;;35.17;36.01
79544;BME280;68994;47.176;7.534;2023-08-24T09:38:47;95995.16;;;36.21;34.76
79544;BME280;68994;47.176;7.534;2023-08-24T09:41:15;95981.66;;;37.00;34.22
79544;BME280;68994;47.176;7.534;2023-08-24T09:43:41;95982.75;;;37.72;32.57
79544;BME280;68994;47.176;7.534;2023-08-24T09:46:09;95984.72;;;37.88;32.26
79544;BME280;68994;47.176;7.534;2023-08-24T09:48:36;95971.34;;;37.83;31.54
79544;BME280;68994;47.176;7.534;2023-08-24T09:51:04;95966.66;;;37.63;32.57
79544;BME280;68994;47.176;7.534;2023-08-24T09:53:33;95961.97;;;37.44;30.57
79544;BME280;68994;47.176;7.534;2023-08-24T09:56:04;95955.09;;;37.32;33.32
79544;BME280;68994;47.176;7.534;2023-08-24T09:58:32;95959.63;;;37.26;32.06
79544;BME280;68994;47.176;7.534;2023-08-24T10:01:01;95953.97;;;37.46;31.97
79544;BME280;68994;47.176;7.534;2023-08-24T10:03:32;95955.59;;;37.60;32.26
79544;BME280;68994;47.176;7.534;2023-08-24T10:05:59;95950.72;;;37.80;32.22
79544;BME280;68994;47.176;7.534;2023-08-24T10:08:27;95951.34;;;37.72;31.76
79544;BME280;68994;47.176;7.534;2023-08-24T10:10:56;95952.03;;;37.59;32.39
79544;BME280;68994;47.176;7.534;2023-08-24T10:13:31;95940.09;;;37.59;32.08
79544;BME280;68994;47.176;7.534;2023-08-24T10:16:00;95933.00;;;37.58;31.93
79544;BME280;68994;47.176;7.534;2023-08-24T10:18:28;95925.59;;;37.67;30.23
79544;BME280;68994;47.176;7.534;2023-08-24T10:20:56;95920.63;;;37.75;29.78
79544;BME280;68994;47.176;7.534;2023-08-24T10:23:23;95914.56;;;37.47;31.21
79544;BME280;68994;47.176;7.534;2023-08-24T10:25:51;95919.97;;;37.38;30.97
79544;BME280;68994;47.176;7.534;2023-08-24T10:28:19;95909.03;;;37.31;30.89
79544;BME280;68994;47.176;7.534;2023-08-24T10:30:47;95912.16;;;37.33;32.45
79544;BME280;68994;47.176;7.534;2023-08-24T10:33:15;95910.66;;;37.28;30.06
79544;BME280;68994;47.176;7.534;2023-08-24T10:35:42;95906.78;;;37.26;32.52
79544;BME280;68994;47.176;7.534;2023-08-24T10:38:23;95907.88;;;37.45;31.69
79544;BME280;68994;47.176;7.534;2023-08-24T10:40:51;95906.56;;;37.66;32.76
79544;BME280;68994;47.176;7.534;2023-08-24T10:43:17;95905.41;;;37.47;31.26
79544;BME280;68994;47.176;7.534;2023-08-24T10:45:54;95897.03;;;37.34;32.63
79544;BME280;68994;47.176;7.534;2023-08-24T10:48:22;95902.53;;;37.50;32.29
79544;BME280;68994;47.176;7.534;2023-08-24T10:51:16;95905.25;;;37.54;33.16
79544;BME280;68994;47.176;7.534;2023-08-24T10:53:47;95899.75;;;37.50;32.41
79544;BME280;68994;47.176;7.534;2023-08-24T10:56:15;95891.28;;;37.41;33.50
79544;BME280;68994;47.176;7.534;2023-08-24T10:58:44;95883.81;;;37.22;32.42
79544;BME280;68994;47.176;7.534;2023-08-24T11:01:14;95884.75;;;37.15;34.27
79544;BME280;68994;47.176;7.534;2023-08-24T11:03:48;95882.25;;;37.21;34.23
79544;BME280;68994;47.176;7.534;2023-08-24T11:06:18;95877.81;;;37.23;33.65
79544;BME280;68994;47.176;7.534;2023-08-24T11:08:48;95869.38;;;37.27;33.50
79544;BME280;68994;47.176;7.534;2023-08-24T11:11:19;95869.56;;;37.20;30.95
79544;BME280;68994;47.176;7.534;2023-08-24T11:14:15;95870.69;;;37.06;35.07
79544;BME280;68994;47.176;7.534;2023-08-24T11:16:45;95872.34;;;37.20;34.42
79544;BME280;68994;47.176;7.534;2023-08-24T11:19:13;95869.03;;;37.25;33.25
79544;BME280;68994;47.176;7.534;2023-08-24T11:21:40;95862.72;;;37.37;34.62
79544;BME280;68994;47.176;7.534;2023-08-24T11:24:09;95852.50;;;37.34;32.94
79544;BME280;68994;47.176;7.534;2023-08-24T11:26:39;95854.06;;;37.19;31.12
79544;BME280;68994;47.176;7.534;2023-08-24T11:29:07;95856.69;;;37.26;34.17
79544;BME280;68994;47.176;7.534;2023-08-24T11:31:33;95851.03;;;37.29;29.54
79544;BME280;68994;47.176;7.534;2023-08-24T11:34:00;95840.88;;;37.23;31.47
79544;BME280;68994;47.176;7.534;2023-08-24T11:36:28;95846.75;;;37.08;29.67
79544;BME280;68994;47.176;7.534;2023-08-24T11:38:56;95848.69;;;36.79;32.06
79544;BME280;68994;47.176;7.534;2023-08-24T11:41:24;95839.91;;;36.80;34.19
79544;BME280;68994;47.176;7.534;2023-08-24T11:43:59;95842.88;;;36.89;35.70
79544;BME280;68994;47.176;7.534;2023-08-24T11:46:28;95839.13;;;36.96;33.27
79544;BME280;68994;47.176;7.534;2023-08-24T11:48:55;95841.47;;;37.14;34.05
79544;BME280;68994;47.176;7.534;2023-08-24T11:51:21;95835.47;;;37.16;33.68
79544;BME280;68994;47.176;7.534;2023-08-24T11:53:48;95839.56;;;37.11;33.19
79544;BME280;68994;47.176;7.534;2023-08-24T11:56:16;95837.97;;;37.10;32.96
79544;BME280;68994;47.176;7.534;2023-08-24T11:58:48;95831.44;;;37.17;33.03
79544;BME280;68994;47.176;7.534;2023-08-24T12:01:16;95830.59;;;36.87;30.48
79544;BME280;68994;47.176;7.534;2023-08-24T12:03:43;95824.69;;;37.01;33.54
79544;BME280;68994;47.176;7.534;2023-08-24T12:06:11;95830.25;;;37.01;33.19
79544;BME280;68994;47.176;7.534;2023-08-24T12:08:39;95835.06;;;37.01;28.80
79544;BME280;68994;47.176;7.534;2023-08-24T12:11:10;95823.31;;;36.93;30.42
79544;BME280;68994;47.176;7.534;2023-08-24T12:13:37;95818.53;;;36.93;29.94
79544;BME280;68994;47.176;7.534;2023-08-24T12:16:06;95812.28;;;36.73;28.27
79544;BME280;68994;47.176;7.534;2023-08-24T12:18:46;95806.38;;;36.71;30.68
79544;BME280;68994;47.176;7.534;2023-08-24T12:21:13;95804.53;;;36.97;33.55
79544;BME280;68994;47.176;7.534;2023-08-24T12:23:40;95806.41;;;37.17;28.90
79544;BME280;68994;47.176;7.534;2023-08-24T12:26:06;95799.81;;;37.10;35.03
79544;BME280;68994;47.176;7.534;2023-08-24T12:28:33;95799.47;;;37.25;34.12
79544;BME280;68994;47.176;7.534;2023-08-24T12:31:00;95794.59;;;37.29;31.86
79544;BME280;68994;47.176;7.534;2023-08-24T12:33:31;95796.66;;;37.41;28.79
79544;BME280;68994;47.176;7.534;2023-08-24T12:35:58;95789.81;;;37.13;28.62
79544;BME280;68994;47.176;7.534;2023-08-24T12:38:26;95785.66;;;37.05;29.44
79544;BME280;68994;47.176;7.534;2023-08-24T12:40:52;95780.72;;;37.12;33.37
79544;BME280;68994;47.176;7.534;2023-08-24T12:43:19;95770.34;;;37.13;30.79
79544;BME280;68994;47.176;7.534;2023-08-24T12:45:46;95771.22;;;37.10;30.94
79544;BME280;68994;47.176;7.534;2023-08-24T12:48:12;95761.72;;;37.24;31.46
79544;BME280;68994;47.176;7.534;2023-08-24T12:50:40;95748.31;;;37.35;29.05
79544;BME280;68994;47.176;7.534;2023-08-24T12:53:07;95753.38;;;37.24;28.53
79544;BME280;68994;47.176;7.534;2023-08-24T12:55:35;95742.69;;;37.22;30.68
79544;BME280;68994;47.176;7.534;2023-08-24T12:58:02;95737.38;;;37.28;28.50
79544;BME280;68994;47.176;7.534;2023-08-24T13:00:29;95727.13;;;37.25;27.60
79544;BME280;68994;47.176;7.534;2023-08-24T13:02:55;95730.47;;;37.20;28.55
79544;BME280;68994;47.176;7.534;2023-08-24T13:05:22;95724.59;;;36.85;27.30